This is the latest recevied weather packets stored in our database for station/object F5ZYU-10. If no packets are shown the sender has not sent any weather packets the latest 10 day(s).
| Time | Temp. | Humidity | Pressure | Rain* | Wind** | Luminosity | Snow |
|---|---|---|---|---|---|---|---|
| 1777599946 | 12.78° C | 80% | 1027.9 hPa | - | - | - | - |
| 1777599046 | 12.78° C | 81% | 1027.9 hPa | - | - | - | - |
| 1777598146 | 12.78° C | 81% | 1028 hPa | - | - | - | - |
| 1777597246 | 12.78° C | 81% | 1028.1 hPa | - | - | - | - |
| 1777596346 | 12.78° C | 81% | 1028.1 hPa | - | - | - | - |
| 1777595446 | 13.33° C | 82% | 1028.2 hPa | - | - | - | - |
| 1777594548 | 13.33° C | 82% | 1028.3 hPa | - | - | - | - |
| 1777593645 | 13.33° C | 82% | 1028.3 hPa | - | - | - | - |
| 1777592745 | 13.33° C | 82% | 1028.4 hPa | - | - | - | - |
| 1777591845 | 13.33° C | 82% | 1028.4 hPa | - | - | - | - |
| 1777590945 | 13.33° C | 82% | 1028.4 hPa | - | - | - | - |
| 1777590045 | 13.89° C | 83% | 1028.4 hPa | - | - | - | - |
| 1777589145 | 13.89° C | 82% | 1028.5 hPa | - | - | - | - |
| 1777588244 | 13.89° C | 82% | 1028.5 hPa | - | - | - | - |
| 1777587344 | 13.33° C | 83% | 1028.1 hPa | - | - | - | - |
| 1777586444 | 13.89° C | 82% | 1028.5 hPa | - | - | - | - |
| 1777585544 | 13.89° C | 82% | 1028.5 hPa | - | - | - | - |
| 1777584644 | 13.89° C | 82% | 1028.5 hPa | - | - | - | - |
| 1777583744 | 13.89° C | 83% | 1028.4 hPa | - | - | - | - |
| 1777582844 | 13.89° C | 83% | 1028.3 hPa | - | - | - | - |
| 1777581944 | 14.44° C | 81% | 1028.3 hPa | - | - | - | - |
| 1777581043 | 13.89° C | 82% | 1028.1 hPa | - | - | - | - |
| 1777580143 | 14.44° C | 81% | 1027.9 hPa | - | - | - | - |
| 1777579250 | 14.44° C | 81% | 1027.9 hPa | - | - | - | - |
| 1777578346 | 14.44° C | 80% | 1027.7 hPa | - | - | - | - |
* Rain since midnight (hover to see other rain measurements)
** Current wind speed in m/s (hover to see current wind gust speed)